Time;durP1;ratioP1;P1;durP2;ratioP2;P2;SDS_P1;SDS_P2;PMS_P1;PMS_P2;Temp;Humidity;BMP_temperature;BMP_pressure;BME280_temperature;BME280_humidity;BME280_pressure;Samples;Min_cycle;Max_cycle;Signal;HPM_P1;HPM_P2
2021/03/22 00:00:56;;;;;;;28.90;7.32;;;5.10;99.90;;;;;;5101412;28;20048;-71
2021/03/22 00:03:23;;;;;;;35.35;7.80;;;5.20;99.90;;;;;;5094555;28;20066;-71
2021/03/22 00:05:50;;;;;;;37.90;9.20;;;5.20;99.90;;;;;;5095589;28;20062;-71
2021/03/22 00:08:16;;;;;;;50.10;9.52;;;5.30;99.90;;;;;;5094634;28;20020;-71
2021/03/22 00:10:44;;;;;;;32.78;7.28;;;5.30;99.90;;;;;;5095124;28;20103;-71
2021/03/22 00:13:11;;;;;;;42.35;7.72;;;5.40;99.90;;;;;;5094715;28;20028;-70
2021/03/22 00:15:37;;;;;;;49.58;9.82;;;5.40;99.90;;;;;;5093639;28;20044;-71
2021/03/22 00:18:06;;;;;;;36.03;8.48;;;5.40;99.90;;;;;;5092818;28;20020;-71
2021/03/22 00:20:31;;;;;;;39.78;8.65;;;5.40;99.90;;;;;;5093577;28;20083;-71
2021/03/22 00:22:57;;;;;;;42.00;8.60;;;5.50;99.90;;;;;;5093131;28;20016;-70
2021/03/22 00:25:23;;;;;;;30.15;7.65;;;5.50;99.90;;;;;;5092765;28;20023;-71
2021/03/22 00:27:49;;;;;;;36.13;9.05;;;5.50;99.90;;;;;;5093450;28;20035;-70
2021/03/22 00:30:23;;;;;;;36.58;9.85;;;5.50;99.90;;;;;;5093439;28;20073;-70
2021/03/22 00:32:48;;;;;;;43.42;8.20;;;5.50;99.90;;;;;;5092514;28;20101;-72
2021/03/22 00:35:14;;;;;;;53.83;10.32;;;5.50;99.90;;;;;;5092997;28;20036;-71
2021/03/22 00:37:40;;;;;;;43.28;8.98;;;5.50;99.90;;;;;;5092365;28;20016;-71
2021/03/22 00:40:06;;;;;;;26.90;8.23;;;5.50;99.90;;;;;;5092165;28;20036;-71
2021/03/22 00:42:32;;;;;;;38.97;7.97;;;5.50;99.90;;;;;;5093055;28;20020;-71
2021/03/22 00:44:57;;;;;;;35.28;8.38;;;5.50;99.90;;;;;;5093194;28;20119;-71
2021/03/22 00:47:23;;;;;;;48.60;9.27;;;5.50;99.90;;;;;;5092259;28;20103;-72
2021/03/22 00:49:48;;;;;;;34.80;9.73;;;5.50;99.90;;;;;;5092868;28;20067;-70
2021/03/22 00:52:14;;;;;;;29.88;8.45;;;5.50;99.90;;;;;;5092868;28;20020;-71
2021/03/22 00:54:40;;;;;;;42.83;10.63;;;5.50;99.90;;;;;;5105120;28;20028;-71
2021/03/22 00:57:08;;;;;;;27.55;7.63;;;5.50;99.90;;;;;;5092780;28;20085;-71
2021/03/22 00:59:34;;;;;;;32.83;9.38;;;5.50;99.90;;;;;;5092736;28;20476;-71
2021/03/22 01:02:00;;;;;;;26.90;8.23;;;5.50;99.90;;;;;;5091618;28;20049;-70
2021/03/22 01:04:25;;;;;;;27.55;8.45;;;5.50;99.90;;;;;;5092574;28;20078;-70
2021/03/22 01:06:51;;;;;;;38.92;8.95;;;5.50;99.90;;;;;;5092237;28;20039;-71
2021/03/22 01:09:17;;;;;;;28.42;9.55;;;5.50;99.90;;;;;;5092586;28;20494;-71
2021/03/22 01:11:42;;;;;;;33.40;8.27;;;5.40;99.90;;;;;;5092831;28;20035;-71
2021/03/22 01:14:08;;;;;;;40.92;8.30;;;5.40;99.90;;;;;;5091337;28;20071;-71
2021/03/22 01:16:36;;;;;;;47.88;9.55;;;5.40;99.90;;;;;;5092403;28;20020;-71
2021/03/22 01:19:14;;;;;;;44.03;10.15;;;5.40;99.90;;;;;;5092257;28;20031;-72
2021/03/22 01:21:51;;;;;;;36.45;8.30;;;5.50;99.90;;;;;;5091975;28;20482;-72
2021/03/22 01:24:20;;;;;;;31.40;7.90;;;5.50;99.90;;;;;;5092680;28;20109;-71
2021/03/22 01:26:47;;;;;;;26.50;8.25;;;5.50;99.90;;;;;;5092368;28;20024;-71
2021/03/22 01:29:21;;;;;;;44.00;9.55;;;5.60;99.90;;;;;;5091012;28;20028;-70
2021/03/22 01:31:47;;;;;;;37.70;8.45;;;5.60;99.90;;;;;;5092496;28;20074;-70
2021/03/22 01:34:13;;;;;;;39.25;8.38;;;5.60;99.90;;;;;;5091967;28;20035;-71
2021/03/22 01:36:39;;;;;;;44.28;9.43;;;5.60;99.90;;;;;;5091454;28;20036;-70
2021/03/22 01:39:12;;;;;;;39.58;9.65;;;5.60;99.90;;;;;;5091955;28;20115;-71
2021/03/22 01:42:02;;;;;;;39.13;8.43;;;5.60;99.90;;;;;;5092256;28;20073;-70
2021/03/22 01:44:39;;;;;;;32.45;8.25;;;5.70;99.90;;;;;;5092269;28;20016;-70
2021/03/22 01:47:11;;;;;;;35.38;7.43;;;5.70;99.90;;;;;;5091740;28;20383;-71
2021/03/22 01:49:41;;;;;;;35.25;7.97;;;5.60;99.90;;;;;;5091338;28;20059;-70
2021/03/22 01:52:08;;;;;;;;;;;5.60;99.90;;;;;;5092273;28;20038;-70
2021/03/22 01:54:33;;;;;;;44.38;8.07;;;5.60;99.90;;;;;;5106397;28;19918;-71
2021/03/22 01:57:29;;;;;;;36.47;8.13;;;5.60;99.90;;;;;;5091356;28;20024;-71
2021/03/22 02:00:17;;;;;;;34.13;7.40;;;5.60;99.90;;;;;;5091528;28;20095;-71
2021/03/22 02:02:45;;;;;;;32.78;8.90;;;5.60;99.90;;;;;;5091675;28;20028;-71
2021/03/22 02:05:16;;;;;;;41.75;8.02;;;5.60;99.90;;;;;;5090832;28;20434;-71
2021/03/22 02:07:45;;;;;;;29.05;7.45;;;5.60;99.90;;;;;;5091884;28;20510;-70
2021/03/22 02:10:12;;;;;;;34.72;8.15;;;5.50;99.90;;;;;;5091056;28;20137;-71
2021/03/22 02:12:37;;;;;;;30.95;9.00;;;5.40;99.90;;;;;;5091814;28;20028;-71
2021/03/22 02:15:05;;;;;;;30.23;9.15;;;5.40;99.90;;;;;;5091235;28;20048;-72
2021/03/22 02:17:42;;;;;;;30.45;7.43;;;5.30;99.90;;;;;;5091107;28;20333;-71
2021/03/22 02:20:41;;;;;;;38.25;8.18;;;5.30;99.90;;;;;;5091434;28;20394;-71
2021/03/22 02:23:25;;;;;;;26.25;7.63;;;5.30;99.90;;;;;;5090851;28;20023;-70
2021/03/22 02:26:00;;;;;;;32.58;8.10;;;5.30;99.90;;;;;;5090272;28;20028;-70
2021/03/22 02:28:39;;;;;;;39.78;8.23;;;5.20;99.90;;;;;;5091202;28;20020;-71
2021/03/22 02:31:22;;;;;;;28.95;7.53;;;5.10;99.90;;;;;;5090901;28;20053;-71
2021/03/22 02:34:07;;;;;;;35.33;8.85;;;5.00;99.90;;;;;;5090907;28;20040;-71
2021/03/22 02:36:59;;;;;;;34.25;8.77;;;5.00;99.90;;;;;;5091325;28;20035;-71
2021/03/22 02:39:38;;;;;;;39.35;7.80;;;4.90;99.90;;;;;;5089532;28;20060;-71
2021/03/22 02:42:07;;;;;;;41.03;8.95;;;4.80;99.90;;;;;;5096828;28;20027;-71
2021/03/22 02:44:36;;;;;;;33.95;7.72;;;4.70;99.90;;;;;;5094156;28;20020;-71
2021/03/22 02:47:24;;;;;;;27.50;7.43;;;4.70;99.90;;;;;;5090658;28;20024;-70
2021/03/22 02:49:51;;;;;;;30.85;8.90;;;4.60;99.90;;;;;;5107399;28;20031;-71
2021/03/22 02:52:48;;;;;;;32.95;7.45;;;4.60;99.90;;;;;;5096471;28;20110;-71
2021/03/22 02:55:20;;;;;;;29.55;7.75;;;4.60;99.90;;;;;;5088872;28;20127;-71
2021/03/22 02:57:55;;;;;;;34.15;9.00;;;4.60;99.90;;;;;;5111977;28;20044;-71
2021/03/22 03:00:28;;;;;;;32.30;7.57;;;4.60;99.90;;;;;;5100915;28;20028;-72
2021/03/22 03:02:58;;;;;;;27.83;8.30;;;4.70;99.90;;;;;;5094588;28;20107;-72
2021/03/22 03:05:27;;;;;;;42.17;8.48;;;4.70;99.90;;;;;;5106204;28;20463;-71
2021/03/22 03:07:59;;;;;;;31.13;9.98;;;4.70;99.90;;;;;;5114036;28;20019;-71
2021/03/22 03:10:25;;;;;;;32.17;8.05;;;4.70;99.90;;;;;;5115529;28;20026;-71
2021/03/22 03:12:51;;;;;;;32.22;6.95;;;4.80;99.90;;;;;;5114976;28;20070;-72
2021/03/22 03:15:19;;;;;;;25.67;8.15;;;4.80;99.90;;;;;;5114121;28;20075;-71
2021/03/22 03:17:47;;;;;;;37.65;8.93;;;4.80;99.90;;;;;;5100480;28;20027;-71
2021/03/22 03:20:17;;;;;;;26.55;7.95;;;4.80;99.90;;;;;;5102269;28;20114;-71
2021/03/22 03:22:42;;;;;;;30.17;7.82;;;4.80;99.90;;;;;;5113458;28;20076;-71
2021/03/22 03:25:10;;;;;;;23.17;7.72;;;4.90;99.90;;;;;;5114796;28;20138;-71
2021/03/22 03:27:35;;;;;;;18.02;7.07;;;4.90;99.90;;;;;;5102881;28;20077;-71
2021/03/22 03:30:03;;;;;;;22.13;8.02;;;4.90;99.90;;;;;;5094122;28;20511;-70
2021/03/22 03:32:29;;;;;;;28.85;7.72;;;4.90;99.90;;;;;;5094317;28;20150;-71
2021/03/22 03:34:54;;;;;;;35.42;8.52;;;4.90;99.90;;;;;;5100692;28;20123;-71
2021/03/22 03:37:20;;;;;;;29.05;7.65;;;4.90;99.90;;;;;;5094575;28;20012;-71
2021/03/22 03:39:45;;;;;;;43.45;8.52;;;5.00;99.90;;;;;;5094103;28;20035;-71
2021/03/22 03:42:12;;;;;;;38.13;8.48;;;5.00;99.90;;;;;;5094344;28;20016;-72
2021/03/22 03:44:38;;;;;;;44.13;8.00;;;5.10;99.90;;;;;;5096683;28;20369;-71
2021/03/22 03:47:07;;;;;;;32.75;7.90;;;5.10;99.90;;;;;;5093840;28;20021;-71
2021/03/22 03:49:33;;;;;;;37.17;7.97;;;5.10;99.90;;;;;;5103721;28;20036;-70
2021/03/22 03:51:58;;;;;;;31.48;8.38;;;5.20;99.90;;;;;;5098650;28;20032;-71
2021/03/22 03:54:24;;;;;;;35.67;8.70;;;5.20;99.90;;;;;;5093771;28;20430;-71
2021/03/22 03:56:49;;;;;;;31.02;8.48;;;5.20;99.90;;;;;;5093123;28;20024;-72
2021/03/22 03:59:15;;;;;;;33.60;9.60;;;5.20;99.90;;;;;;5093591;28;20043;-70
2021/03/22 04:01:40;;;;;;;32.40;8.20;;;5.20;99.90;;;;;;5094340;28;20031;-71
2021/03/22 04:04:06;;;;;;;32.10;8.50;;;5.20;99.90;;;;;;5092674;28;20072;-71
2021/03/22 04:06:34;;;;;;;33.03;7.50;;;5.20;99.90;;;;;;5093970;28;20020;-71
2021/03/22 04:09:07;;;;;;;31.90;7.68;;;5.20;99.90;;;;;;5093348;28;20082;-71
2021/03/22 04:11:41;;;;;;;29.98;8.07;;;5.20;99.90;;;;;;5092973;28;20021;-71
2021/03/22 04:14:15;;;;;;;27.52;8.57;;;5.20;99.90;;;;;;5093277;28;20122;-71
2021/03/22 04:16:41;;;;;;;31.27;7.70;;;5.20;99.90;;;;;;5093900;28;20059;-71
2021/03/22 04:19:06;;;;;;;31.08;7.82;;;5.30;99.90;;;;;;5092644;28;20486;-70
2021/03/22 04:21:32;;;;;;;34.67;9.57;;;5.20;99.90;;;;;;5100108;28;20061;-71
2021/03/22 04:24:01;;;;;;;27.80;8.73;;;5.20;99.90;;;;;;5114124;28;20103;-72
2021/03/22 04:26:27;;;;;;;29.10;7.88;;;5.30;99.90;;;;;;5115051;28;20028;-71
2021/03/22 04:28:53;;;;;;;31.10;7.65;;;5.30;99.90;;;;;;5096342;28;20033;-72
2021/03/22 04:31:22;;;;;;;25.58;7.18;;;5.20;99.90;;;;;;5098476;28;20039;-71
2021/03/22 04:33:50;;;;;;;29.20;7.93;;;5.30;99.90;;;;;;5100285;28;20088;-70
2021/03/22 04:36:15;;;;;;;38.22;8.63;;;5.30;99.90;;;;;;5103867;28;20039;-70
2021/03/22 04:38:41;;;;;;;32.60;8.43;;;5.30;99.90;;;;;;5098613;28;20031;-71
2021/03/22 04:41:07;;;;;;;33.95;7.72;;;5.30;99.90;;;;;;5104096;28;20019;-71
2021/03/22 04:43:33;;;;;;;43.22;7.40;;;5.30;99.90;;;;;;5099555;28;20047;-71
2021/03/22 04:45:59;;;;;;;31.58;7.68;;;5.30;99.90;;;;;;5101801;28;20098;-71
2021/03/22 04:48:25;;;;;;;28.10;7.13;;;5.30;99.90;;;;;;5101678;28;20105;-71
2021/03/22 04:50:51;;;;;;;31.05;7.82;;;5.30;99.90;;;;;;5104421;28;20031;-71
2021/03/22 04:53:17;;;;;;;26.08;7.85;;;5.30;99.90;;;;;;5100906;28;20477;-71
2021/03/22 04:55:42;;;;;;;36.60;7.45;;;5.30;99.90;;;;;;5093219;28;20082;-72
2021/03/22 04:58:08;;;;;;;26.75;6.68;;;5.30;99.90;;;;;;5102529;28;20501;-70
2021/03/22 05:00:38;;;;;;;28.70;7.15;;;5.30;99.90;;;;;;5096463;28;20035;-71
2021/03/22 05:03:05;;;;;;;34.83;7.80;;;5.30;99.90;;;;;;5092638;28;20031;-71
2021/03/22 05:05:31;;;;;;;29.88;6.72;;;5.30;99.90;;;;;;5092682;28;20091;-71
2021/03/22 05:07:56;;;;;;;25.33;5.60;;;5.40;99.90;;;;;;5091662;28;20168;-71
2021/03/22 05:10:33;;;;;;;31.38;5.75;;;5.40;99.90;;;;;;5092586;28;20123;-71
2021/03/22 05:12:58;;;;;;;28.10;6.43;;;5.30;99.90;;;;;;5098022;28;20110;-70
2021/03/22 05:15:26;;;;;;;30.00;5.35;;;5.30;99.90;;;;;;5112063;28;20130;-71
2021/03/22 05:17:51;;;;;;;27.77;5.80;;;5.40;99.90;;;;;;5112533;28;20028;-72
2021/03/22 05:20:33;;;;;;;28.85;4.82;;;5.40;99.90;;;;;;5112091;28;20027;-71
2021/03/22 05:23:08;;;;;;;25.58;5.03;;;5.40;99.90;;;;;;5111916;28;20467;-71
2021/03/22 05:25:34;;;;;;;17.15;4.22;;;5.40;99.90;;;;;;5112817;28;20032;-71
2021/03/22 05:28:00;;;;;;;25.33;4.95;;;5.40;99.90;;;;;;5093856;28;20051;-71
2021/03/22 05:30:26;;;;;;;25.27;4.32;;;5.40;99.90;;;;;;5092343;28;20070;-71
2021/03/22 05:33:00;;;;;;;28.83;3.83;;;5.40;99.90;;;;;;5091691;28;20469;-72
2021/03/22 05:35:27;;;;;;;22.55;3.88;;;5.40;99.90;;;;;;5091812;28;20040;-71
2021/03/22 05:37:54;;;;;;;26.63;3.63;;;5.40;99.90;;;;;;5092134;28;20051;-71
2021/03/22 05:40:29;;;;;;;18.50;3.83;;;5.40;99.90;;;;;;5092183;28;20085;-71
2021/03/22 05:43:13;;;;;;;22.35;4.00;;;5.40;99.90;;;;;;5091064;28;20027;-70
2021/03/22 05:46:02;;;;;;;22.02;5.57;;;5.40;99.90;;;;;;5092018;28;20026;-70
2021/03/22 05:49:09;;;;;;;26.02;4.10;;;5.40;99.90;;;;;;5091242;28;20159;-71
2021/03/22 05:51:41;;;;;;;19.00;3.58;;;5.40;99.90;;;;;;5085784;28;20042;-71
2021/03/22 05:54:39;;;;;;;19.05;4.93;;;5.50;99.90;;;;;;5093056;28;20050;-71
2021/03/22 05:57:27;;;;;;;12.93;4.15;;;5.50;99.90;;;;;;5090916;28;20052;-72
2021/03/22 06:00:13;;;;;;;23.17;4.22;;;5.50;99.90;;;;;;5091558;28;20029;-71
2021/03/22 06:03:07;;;;;;;16.40;3.63;;;5.50;99.90;;;;;;5091144;28;20036;-71
2021/03/22 06:05:47;;;;;;;20.15;3.63;;;5.50;99.90;;;;;;5094524;28;20352;-71
2021/03/22 06:08:19;;;;;;;23.92;4.22;;;5.60;99.90;;;;;;5107010;28;20072;-70
2021/03/22 06:10:50;;;;;;;18.25;3.95;;;5.60;99.90;;;;;;5108285;28;20028;-70
2021/03/22 06:13:22;;;;;;;15.48;4.13;;;5.60;99.90;;;;;;5106795;28;20032;-72
2021/03/22 06:16:05;;;;;;;7.85;4.15;;;5.60;99.90;;;;;;5106040;28;20507;-71
2021/03/22 06:18:56;;;;;;;14.95;4.40;;;5.50;99.90;;;;;;5108129;28;20111;-71
2021/03/22 06:21:23;;;;;;;10.77;4.20;;;5.50;99.90;;;;;;5106694;28;20024;-71
2021/03/22 06:23:50;;;;;;;13.57;3.72;;;5.50;99.90;;;;;;5096805;28;20047;-71
2021/03/22 06:26:18;;;;;;;18.00;4.10;;;5.60;99.90;;;;;;5091189;28;20527;-70
2021/03/22 06:28:46;;;;;;;12.75;3.33;;;5.60;99.90;;;;;;5096723;28;20035;-71
2021/03/22 06:31:12;;;;;;;13.65;3.90;;;5.70;99.90;;;;;;5090091;28;20031;-71
2021/03/22 06:33:46;;;;;;;16.17;3.47;;;5.70;99.90;;;;;;5091115;28;20028;-71
2021/03/22 06:36:23;;;;;;;9.48;3.10;;;5.80;99.90;;;;;;5111367;28;20023;-71
2021/03/22 06:38:54;;;;;;;19.40;3.20;;;5.80;99.90;;;;;;5094151;28;20062;-71
2021/03/22 06:41:46;;;;;;;16.77;5.30;;;5.80;99.90;;;;;;5098808;28;20058;-72
2021/03/22 06:44:16;;;;;;;20.27;5.00;;;5.80;99.90;;;;;;5094957;28;20432;-71
2021/03/22 06:46:58;;;;;;;11.77;3.47;;;5.80;99.90;;;;;;5094161;28;20020;-71
2021/03/22 06:49:29;;;;;;;21.25;4.57;;;5.90;99.90;;;;;;5095010;28;20281;-71
2021/03/22 06:52:00;;;;;;;14.32;3.53;;;5.90;99.90;;;;;;5095328;28;20091;-71
2021/03/22 06:54:33;;;;;;;10.10;3.90;;;5.90;99.90;;;;;;5100737;28;20131;-71
2021/03/22 06:57:15;;;;;;;14.98;4.25;;;6.00;99.90;;;;;;5113884;28;20051;-71
2021/03/22 07:00:00;;;;;;;13.77;3.67;;;6.00;99.90;;;;;;5094162;28;20057;-71
2021/03/22 07:02:26;;;;;;;15.35;4.28;;;6.00;99.90;;;;;;5094400;28;20043;-71
2021/03/22 07:04:52;;;;;;;18.40;4.88;;;6.00;99.90;;;;;;5098352;28;20031;-71
2021/03/22 07:07:23;;;;;;;18.08;5.28;;;6.10;99.90;;;;;;5095062;28;20016;-71
2021/03/22 07:09:59;;;;;;;17.73;5.20;;;6.10;99.90;;;;;;5095264;28;20047;-72
2021/03/22 07:12:30;;;;;;;14.07;3.67;;;6.10;99.90;;;;;;5097724;28;20020;-71
2021/03/22 07:15:25;;;;;;;20.23;6.18;;;6.20;99.90;;;;;;5093493;28;20048;-71
2021/03/22 07:18:12;;;;;;;11.00;3.65;;;6.20;99.90;;;;;;5082871;28;20024;-71
2021/03/22 07:20:41;;;;;;;12.88;3.95;;;6.40;99.90;;;;;;5099258;28;20024;-71
2021/03/22 07:23:41;;;;;;;20.70;3.58;;;6.40;99.90;;;;;;5093606;28;20031;-72
2021/03/22 07:26:32;;;;;;;18.40;4.00;;;6.60;99.90;;;;;;5077780;28;20027;-71
2021/03/22 07:29:35;;;;;;;12.00;3.70;;;6.80;99.90;;;;;;5092630;28;20059;-71
2021/03/22 07:32:26;;;;;;;9.70;3.60;;;7.00;99.90;;;;;;5093379;28;20031;-70
2021/03/22 07:34:54;;;;;;;;;;;7.00;99.90;;;;;;5092920;28;20028;-71
2021/03/22 07:37:51;;;;;;;12.63;3.70;;;7.10;99.90;;;;;;5093480;28;20007;-71
2021/03/22 07:40:28;;;;;;;16.25;4.00;;;7.20;99.90;;;;;;5094126;28;20107;-75
2021/03/22 07:43:31;;;;;;;15.52;3.45;;;7.30;99.90;;;;;;5097570;28;20023;-75
2021/03/22 07:46:23;;;;;;;13.77;3.35;;;7.30;99.90;;;;;;5106629;28;20019;-75
2021/03/22 07:49:10;;;;;;;18.02;3.65;;;7.20;99.90;;;;;;5099553;28;20032;-77
2021/03/22 07:52:10;;;;;;;9.65;2.63;;;7.20;99.90;;;;;;5095227;28;20019;-77
2021/03/22 07:54:55;;;;;;;5.70;2.50;;;7.50;99.90;;;;;;5093130;28;20024;-75
2021/03/22 07:57:39;;;;;;;7.18;2.30;;;6.80;99.90;;;;;;5093800;28;20073;-74
2021/03/22 08:00:08;;;;;;;8.45;2.28;;;6.60;99.90;;;;;;5096284;28;20560;-74
2021/03/22 08:03:16;;;;;;;6.47;1.73;;;6.50;99.90;;;;;;5100405;27;20610;-74
2021/03/22 08:05:42;;;;;;;10.30;3.20;;;6.50;99.90;;;;;;5099400;28;20030;-74
2021/03/22 08:08:31;;;;;;;10.20;2.47;;;6.50;99.90;;;;;;5099298;28;20016;-75
2021/03/22 08:11:00;;;;;;;11.00;2.20;;;6.50;99.90;;;;;;5098125;28;20479;-75
2021/03/22 08:13:54;;;;;;;7.90;1.98;;;6.50;99.90;;;;;;5099961;28;20047;-76
2021/03/22 08:16:38;;;;;;;7.50;2.83;;;6.60;99.90;;;;;;5098568;28;20051;-76
2021/03/22 08:19:18;;;;;;;7.50;2.35;;;6.60;99.90;;;;;;5096119;28;20112;-76
2021/03/22 08:21:56;;;;;;;5.47;2.35;;;6.60;99.90;;;;;;5096740;28;20035;-75
2021/03/22 08:25:01;;;;;;;5.20;1.77;;;6.70;99.90;;;;;;5096105;28;20051;-78
2021/03/22 08:27:34;;;;;;;6.25;1.75;;;6.80;99.90;;;;;;5102142;28;20024;-76
2021/03/22 08:30:21;;;;;;;5.50;2.13;;;6.90;99.90;;;;;;5107775;28;20020;-77
2021/03/22 08:32:56;;;;;;;7.97;2.05;;;7.00;99.90;;;;;;5104459;28;20031;-78
2021/03/22 08:35:41;;;;;;;9.88;2.00;;;7.10;99.90;;;;;;5107816;28;20036;-78
2021/03/22 08:38:19;;;;;;;6.60;1.83;;;7.10;99.90;;;;;;5110701;27;20034;-79
2021/03/22 08:40:53;;;;;;;7.57;1.77;;;7.10;99.90;;;;;;5106434;28;20024;-76
2021/03/22 08:43:40;;;;;;;6.82;2.05;;;7.30;99.90;;;;;;5095059;28;20028;-79
2021/03/22 08:46:18;;;;;;;8.65;2.28;;;7.30;99.90;;;;;;5100892;28;20491;-76
2021/03/22 08:48:44;;;;;;;7.07;2.25;;;7.40;99.90;;;;;;5095535;28;20027;-77
2021/03/22 08:51:23;;;;;;;6.63;2.50;;;7.50;99.90;;;;;;5107310;28;20105;-78
2021/03/22 08:53:51;;;;;;;7.53;2.28;;;7.60;99.90;;;;;;5094282;28;20035;-77
2021/03/22 08:56:48;;;;;;;5.18;2.40;;;7.50;99.90;;;;;;5099395;28;20063;-77
2021/03/22 08:59:20;;;;;;;9.38;2.40;;;7.60;99.90;;;;;;5102439;28;20020;-76
2021/03/22 09:01:48;;;;;;;5.05;1.63;;;7.70;99.90;;;;;;5106787;28;20024;-76
2021/03/22 09:04:20;;;;;;;7.65;2.42;;;7.70;99.90;;;;;;5107414;27;20026;-77
2021/03/22 09:07:05;;;;;;;6.55;2.15;;;7.70;99.90;;;;;;5104640;28;20032;-76
2021/03/22 09:09:39;;;;;;;4.72;2.08;;;7.60;99.90;;;;;;5099884;28;20032;-76
2021/03/22 09:12:32;;;;;;;4.53;1.92;;;7.60;99.90;;;;;;5102877;28;20035;-74
2021/03/22 09:14:59;;;;;;;7.93;1.92;;;7.50;99.90;;;;;;5096089;28;20048;-75
2021/03/22 09:17:33;;;;;;;7.28;1.90;;;7.50;99.90;;;;;;5101726;28;20047;-75
2021/03/22 09:20:25;;;;;;;2.17;1.35;;;7.50;99.90;;;;;;5103650;28;20490;-76
2021/03/22 09:22:55;;;;;;;4.57;1.50;;;7.60;99.90;;;;;;5104304;28;20106;-77
2021/03/22 09:25:46;;;;;;;3.70;1.90;;;7.60;99.90;;;;;;5095462;28;20081;-75
2021/03/22 09:28:23;;;;;;;5.97;1.80;;;7.60;99.90;;;;;;5096273;28;20020;-74
2021/03/22 09:31:05;;;;;;;6.80;1.42;;;7.50;99.90;;;;;;5091719;28;20488;-75
2021/03/22 09:33:53;;;;;;;3.72;2.15;;;7.40;99.90;;;;;;5091472;28;20020;-75
2021/03/22 09:36:32;;;;;;;7.13;1.40;;;7.40;99.90;;;;;;5093884;28;20036;-75
2021/03/22 09:39:01;;;;;;;3.13;1.00;;;7.30;99.90;;;;;;5092919;28;20027;-74
2021/03/22 09:41:51;;;;;;;8.32;2.47;;;7.20;99.90;;;;;;5092919;28;20043;-74
2021/03/22 09:44:18;;;;;;;4.22;1.45;;;7.20;99.90;;;;;;5093324;28;20016;-75
2021/03/22 09:46:47;;;;;;;6.38;1.63;;;7.20;99.90;;;;;;5092044;28;20034;-73
2021/03/22 09:49:17;;;;;;;4.90;1.55;;;7.30;99.90;;;;;;5091926;28;20344;-75
2021/03/22 09:51:46;;;;;;;4.45;1.52;;;7.40;99.90;;;;;;5098077;28;20020;-75
2021/03/22 09:54:34;;;;;;;4.22;1.52;;;7.60;99.90;;;;;;5104257;28;20086;-73
2021/03/22 09:57:29;;;;;;;5.40;1.83;;;7.70;99.90;;;;;;5094791;28;20470;-74
2021/03/22 10:00:01;;;;;;;3.30;1.20;;;7.60;99.90;;;;;;5093680;28;20032;-74
2021/03/22 10:02:29;;;;;;;4.68;0.93;;;7.50;99.90;;;;;;5094270;28;20035;-75
2021/03/22 10:05:15;;;;;;;7.93;1.38;;;7.50;99.90;;;;;;5094350;28;20111;-74
2021/03/22 10:07:42;;;;;;;1.83;1.10;;;7.40;99.90;;;;;;5094157;28;20020;-75
2021/03/22 10:10:27;;;;;;;3.40;1.60;;;7.30;99.90;;;;;;5096196;28;20467;-74
2021/03/22 10:13:20;;;;;;;2.88;1.60;;;7.30;99.90;;;;;;5094897;28;20028;-75
2021/03/22 10:15:54;;;;;;;5.05;1.48;;;7.20;99.90;;;;;;5075692;28;20454;-75
2021/03/22 10:18:33;;;;;;;6.88;1.83;;;7.20;99.90;;;;;;5100418;28;20013;-76
2021/03/22 10:21:15;;;;;;;5.90;2.88;;;7.20;99.90;;;;;;5101771;28;20038;-76
2021/03/22 10:24:02;;;;;;;5.55;1.63;;;7.20;99.90;;;;;;5095534;28;20028;-76
2021/03/22 10:26:35;;;;;;;5.95;2.38;;;7.30;99.90;;;;;;5106064;28;20107;-75
2021/03/22 10:29:19;;;;;;;5.40;2.20;;;7.40;99.90;;;;;;5108280;28;20062;-74
2021/03/22 10:31:48;;;;;;;4.80;2.08;;;7.50;99.90;;;;;;5105247;28;20024;-74
2021/03/22 10:34:30;;;;;;;6.05;1.98;;;7.80;99.90;;;;;;5104513;28;20031;-74
2021/03/22 10:37:04;;;;;;;9.52;1.98;;;8.00;99.90;;;;;;5098315;28;20229;-75
2021/03/22 10:39:35;;;;;;;6.05;1.60;;;8.00;99.90;;;;;;5095338;28;20043;-75
2021/03/22 10:42:02;;;;;;;6.80;2.78;;;8.00;99.90;;;;;;5095408;28;20067;-72
2021/03/22 10:44:36;;;;;;;3.30;1.25;;;8.10;99.90;;;;;;5093109;28;20376;-75
2021/03/22 10:47:10;;;;;;;4.82;1.85;;;8.00;99.90;;;;;;5101656;28;20027;-75
2021/03/22 10:49:36;;;;;;;2.17;1.40;;;8.00;99.90;;;;;;5103232;28;20020;-77
2021/03/22 10:52:04;;;;;;;1.27;0.50;;;8.10;99.90;;;;;;5099085;28;20027;-74
2021/03/22 10:54:45;;;;;;;1.23;0.60;;;8.30;99.90;;;;;;5110935;28;20032;-73
2021/03/22 10:57:19;;;;;;;7.20;2.17;;;8.20;99.90;;;;;;5113157;28;20106;-75
2021/03/22 10:59:51;;;;;;;2.97;0.70;;;8.30;99.90;;;;;;5115835;28;20384;-74
2021/03/22 11:02:37;;;;;;;6.85;0.80;;;8.60;99.90;;;;;;5113327;28;20379;-73
2021/03/22 11:05:14;;;;;;;1.70;0.55;;;8.70;99.90;;;;;;5094440;28;20067;-73
2021/03/22 11:07:41;;;;;;;2.10;0.70;;;8.60;99.90;;;;;;5095129;28;20426;-74
2021/03/22 11:10:13;;;;;;;5.43;0.80;;;8.40;99.90;;;;;;5094426;28;20027;-74
2021/03/22 11:12:42;;;;;;;2.83;1.02;;;8.40;99.90;;;;;;5094093;28;20028;-74
2021/03/22 11:15:16;;;;;;;3.13;1.30;;;8.40;99.90;;;;;;5096784;28;20047;-73
2021/03/22 11:17:44;;;;;;;2.60;1.17;;;8.50;99.90;;;;;;5098917;28;20020;-73
2021/03/22 11:20:11;;;;;;;3.53;1.58;;;8.50;99.90;;;;;;5101740;28;20050;-74
2021/03/22 11:22:39;;;;;;;3.40;1.80;;;8.50;99.90;;;;;;5095859;28;20016;-75
2021/03/22 11:25:30;;;;;;;2.08;1.67;;;8.50;99.90;;;;;;5108152;28;20457;-74
2021/03/22 11:28:05;;;;;;;0.80;0.70;;;8.30;99.90;;;;;;5097315;28;20043;-75
2021/03/22 11:30:41;;;;;;;3.47;1.05;;;8.30;99.90;;;;;;5097389;28;20435;-74
2021/03/22 11:33:23;;;;;;;5.88;1.10;;;8.20;99.90;;;;;;5096995;28;20035;-74
2021/03/22 11:36:16;;;;;;;3.75;1.23;;;9.20;99.90;;;;;;5094995;28;20137;-74
2021/03/22 11:39:08;;;;;;;2.45;1.25;;;8.00;99.90;;;;;;5096626;28;20012;-73
2021/03/22 11:41:36;;;;;;;1.67;0.98;;;7.80;99.90;;;;;;5098744;28;20036;-75
2021/03/22 11:44:17;;;;;;;1.63;0.75;;;7.80;99.90;;;;;;5103551;28;20020;-73
2021/03/22 11:46:48;;;;;;;1.20;0.80;;;7.90;99.90;;;;;;5108729;28;20020;-73
2021/03/22 11:49:39;;;;;;;6.78;0.80;;;7.90;99.90;;;;;;5103316;28;20067;-74
2021/03/22 11:52:19;;;;;;;1.20;1.08;;;8.00;99.90;;;;;;5107118;28;20023;-75
2021/03/22 11:54:53;;;;;;;2.00;0.55;;;8.00;99.90;;;;;;5093875;28;20127;-72
2021/03/22 11:57:35;;;;;;;1.55;0.95;;;8.10;99.90;;;;;;5094512;28;20073;-73
2021/03/22 12:00:22;;;;;;;5.93;1.13;;;8.20;99.90;;;;;;5094252;28;20035;-74
2021/03/22 12:02:51;;;;;;;0.73;0.63;;;8.30;99.90;;;;;;5099674;28;20483;-75
2021/03/22 12:05:54;;;;;;;1.63;1.00;;;8.40;99.90;;;;;;5107750;28;20392;-76
2021/03/22 12:08:35;;;;;;;3.88;1.10;;;8.50;99.90;;;;;;5095290;28;20030;-74
2021/03/22 12:11:03;;;;;;;4.32;1.00;;;8.70;99.90;;;;;;5094604;28;20024;-74
2021/03/22 12:13:28;;;;;;;6.32;1.23;;;8.80;99.90;;;;;;5093984;28;20043;-75
2021/03/22 12:15:54;;;;;;;3.65;1.20;;;8.80;99.90;;;;;;5106376;28;20048;-73
2021/03/22 12:18:27;;;;;;;2.35;0.90;;;8.80;99.90;;;;;;5113012;28;20024;-73
2021/03/22 12:20:52;;;;;;;4.53;1.40;;;8.90;99.90;;;;;;5111986;28;20027;-75
2021/03/22 12:23:18;;;;;;;1.38;1.08;;;8.80;99.90;;;;;;5111732;28;20034;-74
2021/03/22 12:25:43;;;;;;;1.20;0.80;;;8.70;99.90;;;;;;5113448;28;20159;-75
2021/03/22 12:28:09;;;;;;;3.83;1.08;;;8.70;99.90;;;;;;5111356;28;20420;-74
2021/03/22 12:30:35;;;;;;;6.15;1.10;;;8.80;99.90;;;;;;5112490;28;20074;-77
2021/03/22 12:33:02;;;;;;;7.65;0.90;;;8.70;99.90;;;;;;5112538;28;20032;-77
2021/03/22 12:35:32;;;;;;;2.83;1.05;;;8.70;99.90;;;;;;5104773;28;20035;-76
2021/03/22 12:38:05;;;;;;;1.25;0.95;;;8.70;99.90;;;;;;5106256;28;20038;-76
2021/03/22 12:40:31;;;;;;;1.70;1.02;;;8.50;99.90;;;;;;5113830;28;20024;-75
2021/03/22 12:42:59;;;;;;;7.63;1.05;;;8.40;99.90;;;;;;5112612;28;20019;-75
2021/03/22 12:45:28;;;;;;;0.70;0.70;;;8.50;99.90;;;;;;5113796;28;20471;-75
2021/03/22 12:47:55;;;;;;;1.15;0.57;;;8.60;99.90;;;;;;5114028;28;20032;-75
2021/03/22 12:50:27;;;;;;;2.28;0.73;;;8.60;99.90;;;;;;5116490;28;20016;-75
2021/03/22 12:52:53;;;;;;;0.65;0.60;;;8.50;99.90;;;;;;5114140;28;20129;-74
2021/03/22 12:55:21;;;;;;;1.63;0.65;;;8.50;99.90;;;;;;5095255;28;20040;-74
2021/03/22 12:57:48;;;;;;;2.10;0.85;;;8.50;99.90;;;;;;5093265;28;20019;-73
2021/03/22 13:00:16;;;;;;;1.17;0.68;;;8.60;99.90;;;;;;5093796;28;20024;-74
2021/03/22 13:02:44;;;;;;;3.70;0.93;;;8.60;99.90;;;;;;5113224;28;20015;-75
2021/03/22 13:05:30;;;;;;;53.65;3.65;;;8.60;99.90;;;;;;5102727;28;20032;-75
2021/03/22 13:07:56;;;;;;;7.07;0.63;;;8.60;99.90;;;;;;5095189;28;20052;-77
2021/03/22 13:10:28;;;;;;;3.10;1.08;;;8.50;99.90;;;;;;5095277;28;20050;-74
2021/03/22 13:12:55;;;;;;;23.98;1.48;;;8.50;99.90;;;;;;5092762;28;20036;-74
2021/03/22 13:15:41;;;;;;;51.72;3.53;;;8.60;99.90;;;;;;5092128;28;20044;-75
2021/03/22 13:18:12;;;;;;;6.05;0.65;;;8.70;99.90;;;;;;5091960;28;20421;-75
2021/03/22 13:20:38;;;;;;;14.05;1.35;;;8.80;99.90;;;;;;5091965;28;20042;-74
2021/03/22 13:23:06;;;;;;;1.52;0.55;;;8.80;99.90;;;;;;5109164;28;20472;-74
2021/03/22 13:25:32;;;;;;;1.17;0.73;;;8.70;99.90;;;;;;5097284;28;20024;-75